createdAt,value
2022-12-09T00:01:32.911Z,31.63
2022-12-09T00:04:02.911Z,32.70
2022-12-09T00:06:33.476Z,28.98
2022-12-09T00:09:01.036Z,28.48
2022-12-09T00:11:31.578Z,29.65
2022-12-09T00:14:01.188Z,28.55
2022-12-09T00:16:28.847Z,26.85
2022-12-09T00:18:57.701Z,28.13
2022-12-09T00:21:31.441Z,29.52
2022-12-09T00:24:01.520Z,33.28
2022-12-09T00:26:32.179Z,31.20
2022-12-09T00:28:59.740Z,32.78
2022-12-09T00:31:30.423Z,42.83
2022-12-09T00:34:02.021Z,29.77
2022-12-09T00:36:30.189Z,30.40
2022-12-09T00:39:00.091Z,29.52
2022-12-09T00:41:28.364Z,31.73
2022-12-09T00:43:55.824Z,30.45
2022-12-09T00:46:23.453Z,29.23
2022-12-09T00:48:53.741Z,30.20
2022-12-09T00:51:25.222Z,34.20
2022-12-09T00:53:53.247Z,29.48
2022-12-09T00:56:25.968Z,30.52
2022-12-09T00:58:53.304Z,28.17
2022-12-09T01:01:23.924Z,33.78
2022-12-09T01:03:51.622Z,32.05
2022-12-09T01:06:22.162Z,29.65
2022-12-09T01:08:49.538Z,26.83
2022-12-09T01:11:28.868Z,29.90
2022-12-09T01:13:59.666Z,30.40
2022-12-09T01:16:32.210Z,32.00
2022-12-09T01:19:01.976Z,33.10
2022-12-09T01:21:30.458Z,33.47
2022-12-09T01:24:00.283Z,31.70
2022-12-09T01:26:28.185Z,33.50
2022-12-09T01:28:58.253Z,35.17
2022-12-09T01:31:28.206Z,28.70
2022-12-09T01:33:56.401Z,30.85
2022-12-09T01:36:29.091Z,31.83
2022-12-09T01:39:00.691Z,32.67
2022-12-09T01:41:31.397Z,28.48
2022-12-09T01:44:18.169Z,29.00
2022-12-09T01:46:46.417Z,32.55
2022-12-09T01:49:31.395Z,31.58
2022-12-09T01:52:10.499Z,30.30
2022-12-09T01:54:43.094Z,28.75
2022-12-09T01:57:10.928Z,25.38
2022-12-09T01:59:39.479Z,27.00
2022-12-09T02:02:14.468Z,28.20
2022-12-09T02:04:42.715Z,26.77
2022-12-09T02:07:11.164Z,29.50
2022-12-09T02:09:40.049Z,28.67
2022-12-09T02:12:24.087Z,28.20
2022-12-09T02:15:04.688Z,26.65
2022-12-09T02:17:39.894Z,30.77
2022-12-09T02:20:29.984Z,31.00
2022-12-09T02:23:11.395Z,32.10
2022-12-09T02:25:49.624Z,31.35
2022-12-09T02:28:22.957Z,35.28
2022-12-09T02:31:25.693Z,23.33
2022-12-09T02:34:17.416Z,32.58
2022-12-09T02:37:00.458Z,30.27
2022-12-09T02:39:42.293Z,28.65
2022-12-09T02:42:17.316Z,29.33
2022-12-09T02:44:50.081Z,30.33
2022-12-09T02:47:21.671Z,35.53
2022-12-09T02:49:52.396Z,31.83
2022-12-09T02:52:21.744Z,36.40
2022-12-09T02:54:52.539Z,34.85
2022-12-09T02:57:24.766Z,34.47
2022-12-09T02:59:53.078Z,32.85
2022-12-09T03:02:20.404Z,35.78
2022-12-09T03:05:04.693Z,33.33
2022-12-09T03:07:36.502Z,33.35
2022-12-09T03:10:16.121Z,29.33
2022-12-09T03:12:50.850Z,32.30
2022-12-09T03:15:23.127Z,34.30
2022-12-09T03:17:52.940Z,34.42
2022-12-09T03:20:29.795Z,30.83
2022-12-09T03:23:00.926Z,33.67
2022-12-09T03:25:38.419Z,31.55
2022-12-09T03:28:14.192Z,32.70
2022-12-09T03:30:44.939Z,34.67
2022-12-09T03:33:15.803Z,30.77
2022-12-09T03:35:49.603Z,38.08
2022-12-09T03:38:21.073Z,32.28
2022-12-09T03:40:54.551Z,32.03
2022-12-09T03:43:37.485Z,26.77
2022-12-09T03:46:05.584Z,34.25
2022-12-09T03:48:35.839Z,34.70
2022-12-09T03:51:14.382Z,31.95
2022-12-09T03:53:43.700Z,35.22
2022-12-09T03:56:27.837Z,35.67
2022-12-09T03:58:57.906Z,36.95
2022-12-09T04:01:27.130Z,35.10
2022-12-09T04:03:56.444Z,36.25
2022-12-09T04:06:24.728Z,33.17
2022-12-09T04:08:52.015Z,34.30
2022-12-09T04:11:19.662Z,33.50
2022-12-09T04:13:46.873Z,36.33
2022-12-09T04:16:14.241Z,37.75
2022-12-09T04:18:42.590Z,35.20
2022-12-09T04:21:13.945Z,34.05
2022-12-09T04:23:43.468Z,41.83
2022-12-09T04:26:17.128Z,38.67
2022-12-09T04:28:44.223Z,41.07
2022-12-09T04:31:13.716Z,40.70
2022-12-09T04:33:41.924Z,42.88
2022-12-09T04:36:12.568Z,42.83
2022-12-09T04:38:40.861Z,45.58
2022-12-09T04:41:11.658Z,43.75
2022-12-09T04:43:39.521Z,37.25
2022-12-09T04:46:14.851Z,43.42
2022-12-09T04:48:45.079Z,41.63
2022-12-09T04:51:16.415Z,43.83
2022-12-09T04:53:44.469Z,35.78
2022-12-09T04:56:15.874Z,40.53
2022-12-09T04:58:43.584Z,37.50
2022-12-09T05:01:15.670Z,45.35
2022-12-09T05:06:16.314Z,40.63
2022-12-09T05:08:46.187Z,37.47
2022-12-09T05:11:18.168Z,38.53
2022-12-09T05:13:46.045Z,39.67
2022-12-09T05:16:17.286Z,35.90
2022-12-09T05:18:48.899Z,32.20
2022-12-09T05:21:19.491Z,34.53
2022-12-09T05:23:47.312Z,34.70
2022-12-09T05:26:19.992Z,37.88
2022-12-09T05:28:47.527Z,37.47
2022-12-09T05:31:17.962Z,36.28
2022-12-09T05:33:48.796Z,36.63
2022-12-09T05:36:19.058Z,38.65
2022-12-09T05:38:46.444Z,33.33
2022-12-09T05:41:14.161Z,34.00
2022-12-09T05:43:43.992Z,33.45
2022-12-09T05:46:14.864Z,40.80
2022-12-09T05:48:42.557Z,38.20
2022-12-09T05:51:18.688Z,34.78
2022-12-09T05:53:46.375Z,34.92
2022-12-09T05:56:18.860Z,39.95
2022-12-09T05:58:49.294Z,50.55
2022-12-09T06:01:17.344Z,43.28
2022-12-09T06:03:48.174Z,43.67
2022-12-09T06:06:22.063Z,45.15
2022-12-09T06:08:50.174Z,45.20
2022-12-09T06:11:21.156Z,42.42
2022-12-09T06:13:50.519Z,43.92
2022-12-09T06:16:20.926Z,42.05
2022-12-09T06:18:49.426Z,44.30
2022-12-09T06:21:20.869Z,44.42
2022-12-09T06:23:49.926Z,42.92
2022-12-09T06:26:20.903Z,43.90
2022-12-09T06:28:48.809Z,48.65
2022-12-09T06:31:16.835Z,47.80
2022-12-09T06:33:55.933Z,45.05
2022-12-09T06:36:26.196Z,49.33
2022-12-09T06:38:54.156Z,45.40
2022-12-09T06:41:21.869Z,45.08
2022-12-09T06:43:49.455Z,47.33
2022-12-09T06:46:21.396Z,47.55
2022-12-09T06:48:51.192Z,54.70
2022-12-09T06:51:19.843Z,46.30
2022-12-09T06:53:47.545Z,39.75
2022-12-09T06:56:18.493Z,46.33
2022-12-09T06:58:46.780Z,48.78
2022-12-09T07:01:18.132Z,53.40
2022-12-09T07:03:48.418Z,54.53
2022-12-09T07:06:36.279Z,48.72
2022-12-09T07:09:06.797Z,50.60
2022-12-09T07:11:37.810Z,56.50
2022-12-09T07:14:05.354Z,45.65
2022-12-09T07:16:33.023Z,42.80
2022-12-09T07:19:01.171Z,41.22
2022-12-09T07:21:31.565Z,43.47
2022-12-09T07:24:03.173Z,39.88
2022-12-09T07:26:33.132Z,41.83
2022-12-09T07:29:05.885Z,43.53
2022-12-09T07:31:34.566Z,42.42
2022-12-09T07:34:05.599Z,44.03
2022-12-09T07:36:37.272Z,49.05
2022-12-09T07:39:17.047Z,45.25
2022-12-09T07:41:45.408Z,49.30
2022-12-09T07:44:12.802Z,48.35
2022-12-09T07:46:40.899Z,47.67
2022-12-09T07:49:11.782Z,43.65
2022-12-09T07:51:40.155Z,41.45
2022-12-09T07:54:10.644Z,43.08
2022-12-09T07:56:38.523Z,41.28
2022-12-09T07:59:10.358Z,39.13
2022-12-09T08:01:38.564Z,39.38
2022-12-09T08:04:10.034Z,42.70
2022-12-09T08:06:40.672Z,40.60
2022-12-09T08:09:12.097Z,41.72
2022-12-09T08:11:42.706Z,42.45
2022-12-09T08:14:12.901Z,42.97
2022-12-09T08:16:42.583Z,43.28
2022-12-09T08:19:11.112Z,39.65
2022-12-09T08:21:41.797Z,38.63
2022-12-09T08:24:11.729Z,40.13
2022-12-09T08:26:39.977Z,55.70
2022-12-09T08:29:09.308Z,39.20
2022-12-09T08:31:42.362Z,41.22
2022-12-09T08:34:10.264Z,38.70
2022-12-09T08:36:41.043Z,41.13
2022-12-09T08:39:12.414Z,40.97
2022-12-09T08:41:40.720Z,43.55
2022-12-09T08:44:08.192Z,41.67
2022-12-09T08:46:38.084Z,39.70
2022-12-09T08:49:06.534Z,38.95
2022-12-09T08:51:37.357Z,37.90
2022-12-09T08:54:05.970Z,37.13
2022-12-09T08:56:34.361Z,35.78
2022-12-09T08:59:02.194Z,34.40
2022-12-09T09:01:31.562Z,33.55
2022-12-09T09:04:02.513Z,36.20
2022-12-09T09:06:30.434Z,32.67
2022-12-09T09:09:00.428Z,32.03
2022-12-09T09:11:28.762Z,31.05
2022-12-09T09:13:56.213Z,28.17
2022-12-09T09:16:26.464Z,30.90
2022-12-09T09:18:54.376Z,31.95
2022-12-09T09:21:24.254Z,29.92
2022-12-09T09:23:51.927Z,27.77
2022-12-09T09:26:22.854Z,30.00
2022-12-09T09:28:50.292Z,32.40
2022-12-09T09:31:21.154Z,26.60
2022-12-09T09:33:49.751Z,29.85
2022-12-09T09:36:23.040Z,29.17
2022-12-09T09:38:55.291Z,29.05
2022-12-09T09:41:32.574Z,28.13
2022-12-09T09:44:01.061Z,26.63
2022-12-09T09:46:44.089Z,27.58
2022-12-09T09:49:34.612Z,29.88
2022-12-09T09:52:11.537Z,30.95
2022-12-09T09:54:38.864Z,32.13
2022-12-09T09:57:24.180Z,35.53
2022-12-09T10:00:07.037Z,34.85
2022-12-09T10:03:04.059Z,31.70
2022-12-09T10:05:34.736Z,34.50
2022-12-09T10:08:38.897Z,32.75
2022-12-09T10:11:27.206Z,30.20
2022-12-09T10:14:11.100Z,30.20
2022-12-09T10:17:01.590Z,32.40
2022-12-09T10:19:36.972Z,31.98
2022-12-09T10:22:21.266Z,27.30
2022-12-09T10:24:55.623Z,29.13
2022-12-09T10:27:38.101Z,28.33
2022-12-09T10:30:16.388Z,26.63
2022-12-09T10:32:44.941Z,25.60
2022-12-09T10:35:14.599Z,24.20
2022-12-09T10:37:43.108Z,23.25
2022-12-09T10:40:11.176Z,26.63
2022-12-09T10:42:44.767Z,24.30
2022-12-09T10:45:14.476Z,23.50
2022-12-09T10:47:49.914Z,27.83
2022-12-09T10:50:37.244Z,24.25
2022-12-09T10:53:17.345Z,23.95
2022-12-09T10:55:52.068Z,21.08
2022-12-09T10:58:23.732Z,21.15
2022-12-09T11:01:11.107Z,19.35
2022-12-09T11:03:50.639Z,21.92
2022-12-09T11:06:24.690Z,23.63
2022-12-09T11:09:02.609Z,26.38
2022-12-09T11:11:39.597Z,23.55
2022-12-09T11:14:30.514Z,27.73
2022-12-09T11:17:11.160Z,28.13
2022-12-09T11:19:41.857Z,31.45
2022-12-09T11:22:21.449Z,27.02
2022-12-09T11:24:54.540Z,25.42
2022-12-09T11:27:28.171Z,25.20
2022-12-09T11:30:14.413Z,21.67
2022-12-09T11:32:56.716Z,26.15
2022-12-09T11:35:29.700Z,23.70
2022-12-09T11:40:32.937Z,27.58
2022-12-09T11:43:02.914Z,19.73
2022-12-09T11:45:45.676Z,21.27
2022-12-09T11:48:32.016Z,23.37
2022-12-09T11:51:02.437Z,19.33
2022-12-09T11:53:34.597Z,19.95
2022-12-09T11:56:05.633Z,19.08
2022-12-09T11:58:42.191Z,19.40
2022-12-09T12:01:20.297Z,19.15
2022-12-09T12:04:01.284Z,20.35
2022-12-09T12:06:47.038Z,20.38
2022-12-09T12:09:25.042Z,22.17
2022-12-09T12:12:10.048Z,23.58
2022-12-09T12:14:42.013Z,24.20
2022-12-09T12:17:36.430Z,23.45
2022-12-09T12:20:05.710Z,25.00
2022-12-09T12:23:02.244Z,21.77
2022-12-09T12:26:06.291Z,25.70
2022-12-09T12:29:19.763Z,30.80
2022-12-09T12:32:10.237Z,48.45
2022-12-09T12:35:07.644Z,28.60
2022-12-09T12:37:56.119Z,27.77
2022-12-09T12:40:32.165Z,27.33
2022-12-09T12:43:29.953Z,31.90
2022-12-09T12:46:02.279Z,32.78
2022-12-09T12:49:01.826Z,34.92
2022-12-09T12:51:32.126Z,36.08
2022-12-09T12:54:08.857Z,33.95
2022-12-09T12:57:03.739Z,36.95
2022-12-09T12:59:33.779Z,41.05
2022-12-09T13:02:32.314Z,34.38
2022-12-09T13:05:13.444Z,38.85
2022-12-09T13:07:48.327Z,39.00
2022-12-09T13:10:19.645Z,33.58
2022-12-09T13:12:50.869Z,44.03
2022-12-09T13:15:40.321Z,38.58
2022-12-09T13:18:15.914Z,36.70
2022-12-09T13:20:51.401Z,35.05
2022-12-09T13:23:37.268Z,36.25
2022-12-09T13:26:24.651Z,37.58
2022-12-09T13:28:57.397Z,37.38
2022-12-09T13:31:30.500Z,40.92
2022-12-09T13:34:19.303Z,35.10
2022-12-09T13:36:49.448Z,37.03
2022-12-09T13:39:42.007Z,38.17
2022-12-09T13:42:27.713Z,37.67
2022-12-09T13:45:05.699Z,41.20
2022-12-09T13:47:36.794Z,38.28
2022-12-09T13:50:07.651Z,38.42
2022-12-09T13:52:52.882Z,43.47
2022-12-09T13:55:23.824Z,42.85
2022-12-09T13:58:04.662Z,46.10
2022-12-09T14:00:34.958Z,46.65
2022-12-09T14:03:23.330Z,43.55
2022-12-09T14:05:58.501Z,45.08
2022-12-09T14:08:34.396Z,46.08
2022-12-09T14:11:37.619Z,45.45
2022-12-09T14:14:28.205Z,55.33
2022-12-09T14:17:16.538Z,48.15
2022-12-09T14:20:20.456Z,44.88
2022-12-09T14:23:12.365Z,48.10
2022-12-09T14:25:50.939Z,45.97
2022-12-09T14:28:50.013Z,42.20
2022-12-09T14:32:09.477Z,40.97
2022-12-09T14:34:39.715Z,46.22
2022-12-09T14:37:19.016Z,47.35
2022-12-09T14:40:05.274Z,50.53
2022-12-09T14:42:46.235Z,48.17
2022-12-09T14:45:36.089Z,45.50
2022-12-09T14:48:10.306Z,49.55
2022-12-09T14:50:38.336Z,46.63
2022-12-09T14:53:19.111Z,47.63
2022-12-09T14:55:49.833Z,48.67
2022-12-09T14:58:20.393Z,47.72
2022-12-09T15:00:57.943Z,49.03
2022-12-09T15:03:36.935Z,43.78
2022-12-09T15:06:17.616Z,49.67
2022-12-09T15:08:45.426Z,48.03
2022-12-09T15:11:17.150Z,49.42
2022-12-09T15:13:47.367Z,46.35
2022-12-09T15:16:26.123Z,52.67
2022-12-09T15:18:56.092Z,53.85
2022-12-09T15:21:31.549Z,51.17
2022-12-09T15:24:00.780Z,51.25
2022-12-09T15:26:31.340Z,49.72
2022-12-09T15:28:59.466Z,54.80
2022-12-09T15:31:29.611Z,52.15
2022-12-09T15:34:00.406Z,54.78
2022-12-09T15:36:40.287Z,54.42
2022-12-09T15:39:13.430Z,56.65
2022-12-09T15:41:50.188Z,67.45
2022-12-09T15:44:20.228Z,67.68
2022-12-09T15:46:53.010Z,58.17
2022-12-09T15:49:27.117Z,55.45
2022-12-09T15:51:56.286Z,56.67
2022-12-09T15:54:29.675Z,60.22
2022-12-09T15:56:58.938Z,67.07
2022-12-09T15:59:40.094Z,68.55
2022-12-09T16:02:09.923Z,62.97
2022-12-09T16:04:43.285Z,68.28
2022-12-09T16:07:16.232Z,62.90
2022-12-09T16:10:00.056Z,61.03
2022-12-09T16:12:29.847Z,61.45
2022-12-09T16:14:57.495Z,60.08
2022-12-09T16:17:29.189Z,62.47
2022-12-09T16:19:59.403Z,62.40
2022-12-09T16:22:33.087Z,56.53
2022-12-09T16:27:47.604Z,51.13
2022-12-09T16:30:22.443Z,53.13
2022-12-09T16:32:55.874Z,55.03
2022-12-09T16:35:29.159Z,58.08
2022-12-09T16:37:56.624Z,62.38
2022-12-09T16:40:24.106Z,61.58
2022-12-09T16:43:15.577Z,53.35
2022-12-09T16:45:44.440Z,56.08
2022-12-09T16:48:12.232Z,57.20
2022-12-09T16:50:48.827Z,54.90
2022-12-09T16:53:22.729Z,51.65
2022-12-09T16:55:55.651Z,52.75
2022-12-09T16:58:23.411Z,56.08
2022-12-09T17:00:51.107Z,50.83
2022-12-09T17:03:32.139Z,54.65
2022-12-09T17:05:59.688Z,57.47
2022-12-09T17:08:26.861Z,55.13
2022-12-09T17:10:56.529Z,57.50
2022-12-09T17:13:23.930Z,52.85
2022-12-09T17:15:52.540Z,58.30
2022-12-09T17:18:19.924Z,62.55
2022-12-09T17:20:47.578Z,63.30
2022-12-09T17:23:14.774Z,56.97
2022-12-09T17:25:42.203Z,66.43
2022-12-09T17:28:09.388Z,63.25
2022-12-09T17:30:38.460Z,58.70
2022-12-09T17:33:06.596Z,64.38
2022-12-09T17:35:38.443Z,68.43
2022-12-09T17:38:05.565Z,66.10
2022-12-09T17:40:37.531Z,69.05
2022-12-09T17:43:07.474Z,66.05
2022-12-09T17:45:40.353Z,65.97
2022-12-09T17:48:11.436Z,64.38
2022-12-09T17:50:39.757Z,61.45
2022-12-09T17:53:06.944Z,60.97
2022-12-09T17:55:34.526Z,68.15
2022-12-09T17:58:01.642Z,58.40
2022-12-09T18:00:31.780Z,57.67
2022-12-09T18:03:01.289Z,57.95
2022-12-09T18:05:28.928Z,63.65
2022-12-09T18:07:56.354Z,58.08
2022-12-09T18:10:23.987Z,57.85
2022-12-09T18:12:53.495Z,59.80
2022-12-09T18:15:20.913Z,60.10
2022-12-09T18:17:50.661Z,66.28
2022-12-09T18:20:20.589Z,65.88
2022-12-09T18:22:47.652Z,68.63
2022-12-09T18:25:15.265Z,69.00
2022-12-09T18:27:44.886Z,65.57
2022-12-09T18:30:12.664Z,65.18
2022-12-09T18:32:40.122Z,70.75
2022-12-09T18:35:07.718Z,72.38
2022-12-09T18:37:34.828Z,69.15
2022-12-09T18:40:02.298Z,76.38
2022-12-09T18:42:31.920Z,70.85
2022-12-09T18:44:59.322Z,74.18
2022-12-09T18:47:26.466Z,76.57
2022-12-09T18:49:53.779Z,78.63
2022-12-09T18:52:20.931Z,86.57
2022-12-09T18:54:55.898Z,86.22
2022-12-09T18:57:30.561Z,84.65
2022-12-09T19:00:03.813Z,93.20
2022-12-09T19:02:33.922Z,84.53
2022-12-09T19:05:01.808Z,86.57
2022-12-09T19:07:32.517Z,86.60
2022-12-09T19:10:00.070Z,88.78
2022-12-09T19:12:46.497Z,79.18
2022-12-09T19:15:14.593Z,86.28
2022-12-09T19:17:41.789Z,80.45
2022-12-09T19:20:10.033Z,83.35
2022-12-09T19:22:37.256Z,80.43
2022-12-09T19:25:05.636Z,75.10
2022-12-09T19:27:32.767Z,74.53
2022-12-09T19:30:00.386Z,77.45
2022-12-09T19:35:09.366Z,76.85
2022-12-09T19:37:38.793Z,77.60
2022-12-09T19:40:07.244Z,84.85
2022-12-09T19:42:34.608Z,77.30
2022-12-09T19:45:04.410Z,78.95
2022-12-09T19:47:33.728Z,79.82
2022-12-09T19:50:02.655Z,80.68
2022-12-09T19:52:34.392Z,79.18
2022-12-09T19:55:10.525Z,79.05
2022-12-09T19:57:37.895Z,86.45
2022-12-09T20:00:06.094Z,81.30
2022-12-09T20:02:37.908Z,83.75
2022-12-09T20:05:06.140Z,83.35
2022-12-09T20:07:33.320Z,80.55
2022-12-09T20:10:08.576Z,81.13
2022-12-09T20:12:36.412Z,82.82
2022-12-09T20:15:04.799Z,84.47
2022-12-09T20:17:32.299Z,92.57
2022-12-09T20:20:02.239Z,93.05
2022-12-09T20:22:31.507Z,92.00
2022-12-09T20:24:59.064Z,92.07
2022-12-09T20:27:26.598Z,89.80
2022-12-09T20:29:54.120Z,93.95
2022-12-09T20:32:21.489Z,90.28
2022-12-09T20:34:49.198Z,95.22
2022-12-09T20:37:16.401Z,94.75
2022-12-09T20:39:45.368Z,86.20
2022-12-09T20:42:12.562Z,87.18
2022-12-09T20:44:41.150Z,89.65
2022-12-09T20:47:08.450Z,88.65
2022-12-09T20:49:36.153Z,85.30
2022-12-09T20:52:03.350Z,89.03
2022-12-09T20:54:31.441Z,84.55
2022-12-09T20:56:58.922Z,85.13
2022-12-09T20:59:26.375Z,79.75
2022-12-09T21:01:53.607Z,84.30
2022-12-09T21:04:21.808Z,89.55
2022-12-09T21:06:49.259Z,84.15
2022-12-09T21:09:18.782Z,91.13
2022-12-09T21:11:46.666Z,81.93
2022-12-09T21:14:15.015Z,86.70
2022-12-09T21:16:43.558Z,80.15
2022-12-09T21:19:17.294Z,82.40
2022-12-09T21:21:46.047Z,83.70
2022-12-09T21:24:14.930Z,86.30
2022-12-09T21:26:44.307Z,80.05
2022-12-09T21:29:12.353Z,81.82
2022-12-09T21:31:41.179Z,79.75
2022-12-09T21:34:09.893Z,81.32
2022-12-09T21:36:41.077Z,81.15
2022-12-09T21:39:13.183Z,79.65
2022-12-09T21:41:41.500Z,82.18
2022-12-09T21:44:13.076Z,92.95
2022-12-09T21:46:40.340Z,85.45
2022-12-09T21:49:07.784Z,79.30
2022-12-09T21:51:35.502Z,95.80
2022-12-09T21:54:03.598Z,127.25
2022-12-09T21:56:33.760Z,96.10
2022-12-09T21:59:02.275Z,89.85
2022-12-09T22:01:35.891Z,91.35
2022-12-09T22:06:31.822Z,93.50
2022-12-09T22:09:00.648Z,98.47
2022-12-09T22:11:30.814Z,102.85
2022-12-09T22:13:59.790Z,103.22
2022-12-09T22:16:34.205Z,83.78
2022-12-09T22:19:03.324Z,89.78
2022-12-09T22:21:31.786Z,86.05
2022-12-09T22:24:02.964Z,91.45
2022-12-09T22:26:32.661Z,94.00
2022-12-09T22:29:04.894Z,89.05
2022-12-09T22:31:36.397Z,188.52
2022-12-09T22:34:06.905Z,96.55
2022-12-09T22:36:34.295Z,98.18
2022-12-09T22:39:05.861Z,94.40
2022-12-09T22:41:41.353Z,107.00
2022-12-09T22:44:10.440Z,93.07
2022-12-09T22:46:40.079Z,92.43
2022-12-09T22:49:07.607Z,94.18
2022-12-09T22:51:36.540Z,122.43
2022-12-09T22:54:10.284Z,98.68
2022-12-09T22:56:39.366Z,102.85
2022-12-09T22:59:09.352Z,115.30
2022-12-09T23:01:37.239Z,110.47
2022-12-09T23:04:06.495Z,97.28
2022-12-09T23:06:36.474Z,94.28
2022-12-09T23:09:05.121Z,96.95
2022-12-09T23:11:32.298Z,96.63
2022-12-09T23:14:00.456Z,96.47
2022-12-09T23:16:30.378Z,107.88
2022-12-09T23:18:59.090Z,101.15
2022-12-09T23:21:31.128Z,136.18
2022-12-09T23:24:01.011Z,104.15
2022-12-09T23:26:30.752Z,123.82
2022-12-09T23:29:00.986Z,107.40
2022-12-09T23:31:32.012Z,114.53
2022-12-09T23:34:00.442Z,111.45
2022-12-09T23:36:31.012Z,120.47
2022-12-09T23:38:59.741Z,112.28
2022-12-09T23:41:32.038Z,117.80
2022-12-09T23:43:59.535Z,111.43
2022-12-09T23:46:28.344Z,219.50
2022-12-09T23:48:56.355Z,135.73
2022-12-09T23:51:29.971Z,127.68
2022-12-09T23:56:31.755Z,101.45
2022-12-09T23:59:02.444Z,113.10
